Pagina principale
METAR-TAF:

METAR-TAF

Aeroporti :

Aeroporto Internazionale di Sarajevo

Sarajevo, Bosnia-Erzegovina

latitudine: 43-49N, longitudine: 018-20E, altezza: 511 m

Osservazione

Il bollettino è stato emesso 35 minuti fa, alle 03:00 UTC
Vento 1 kt da sud
Temperature 0°C
Umidità 100%
Pressione 1024 hPa
Visibilità: 7000 m

METAR: LQSA 270300Z 17001KT 7000 NSC M00/M00 Q1024

Ora: 04:35 (03:35 UTC)

Previsione

Il bollettino è stato emesso 4 ore e 35 minuti fa, alle 23:00 UTC
Previsione valida dal 27 alle 00 UTC al 27 alle 24 UTC
Vento 2 kt da direzioni variabili
Visibilità 10 km o più
nessuna nube inferiore a 1500 m e nessun cumulonembo
Probabilità 40% :
Temporaneamente
dal 27 alle 11 UTC al 27 alle 18 UTC
Vento 12 kt da nord/nord-ovest
pioggia

TAF: LQSA 262300Z 2700/2724 VRB02KT CAVOK TX11/2714Z TNM00/2706Z PROB40 TEMPO 2711/2718 33012KT RA

Osservazioni e previsioni meteorologiche di più di 4000 aeroporti (messaggi METAR e TAF).

Le stazioni disponibili sono rappresentate dai dischi gialli e rossi sulla carta.

Puntare il mouse per vedere il nome della stazione.

Clicca sopra per visualizzare le osservazioni e previsioni meteorologiche.

Per cambiare la mappa : fare clic sui pulsanti verdi con una croce nera per ingrandire, il pulsante verde con un trattino per diminuire, o sulla freccia verde per le mappe adiacenti.


METAR-TAF: